Time;durP1;ratioP1;P1;durP2;ratioP2;P2;SDS_P1;SDS_P2;PMS_P1;PMS_P2;Temp;Humidity;BMP_temperature;BMP_pressure;BME280_temperature;BME280_humidity;BME280_pressure;Samples;Min_cycle;Max_cycle;Signal;HPM_P1;HPM_P2
2023/01/28 00:01:46;;;;;;;3.15;2.58;;;;;;;10.71;80.45;100603.38;4953916;28;20041;-87
2023/01/28 00:04:11;;;;;;;3.20;2.60;;;;;;;10.67;80.56;100587.44;4971457;28;20125;-88
2023/01/28 00:06:38;;;;;;;4.05;2.70;;;;;;;10.88;80.08;100621.59;4970485;28;20106;-87
2023/01/28 00:09:03;;;;;;;3.22;2.67;;;;;;;10.68;80.30;100592.75;4974388;28;20431;-87
2023/01/28 00:11:29;;;;;;;3.45;2.70;;;;;;;10.54;80.34;100568.56;4970228;28;20032;-86
2023/01/28 00:13:55;;;;;;;3.85;2.97;;;;;;;10.59;80.11;100581.84;4954633;28;20038;-87
2023/01/28 00:16:21;;;;;;;3.40;2.70;;;;;;;10.75;80.23;100610.53;4948291;28;20027;-86
2023/01/28 00:18:47;;;;;;;4.40;2.40;;;;;;;10.73;80.55;100613.88;4971185;28;20242;-86
2023/01/28 00:21:14;;;;;;;3.30;2.47;;;;;;;10.67;80.43;100605.72;4966018;28;20050;-86
2023/01/28 00:23:41;;;;;;;2.80;2.30;;;;;;;10.82;80.56;100640.47;4963709;28;20031;-85
2023/01/28 00:26:13;;;;;;;3.55;2.30;;;;;;;10.68;79.76;100597.09;4952224;28;20041;-86
2023/01/28 00:28:40;;;;;;;3.17;2.35;;;;;;;10.71;80.15;100615.50;4950253;28;20039;-87
2023/01/28 00:31:07;;;;;;;3.50;2.58;;;;;;;10.81;79.98;100630.84;4970514;28;20073;-86
2023/01/28 00:33:32;;;;;;;3.22;2.42;;;;;;;10.47;79.98;100589.06;4966032;28;20054;-86
2023/01/28 00:36:03;;;;;;;3.30;2.53;;;;;;;10.79;80.24;100650.75;4970483;28;20093;-86
2023/01/28 00:38:28;;;;;;;5.25;2.38;;;;;;;10.61;80.63;100622.00;4968420;28;20050;-86
2023/01/28 00:40:54;;;;;;;2.83;2.20;;;;;;;10.78;79.93;100642.03;4974838;28;20150;-86
2023/01/28 00:43:20;;;;;;;3.20;2.35;;;;;;;10.79;79.93;100640.31;4974588;28;20046;-87
2023/01/28 00:45:46;;;;;;;3.13;2.25;;;;;;;10.51;80.39;100606.66;4942096;28;20409;-86
2023/01/28 00:48:12;;;;;;;2.67;2.13;;;;;;;10.43;79.73;100579.28;4950059;28;20183;-86
2023/01/28 00:50:38;;;;;;;2.60;2.10;;;;;;;10.61;80.04;100613.28;4973394;28;20092;-86
2023/01/28 00:53:04;;;;;;;3.40;2.40;;;;;;;10.49;80.34;100606.59;4957798;28;20035;-84
2023/01/28 00:55:29;;;;;;;2.42;2.10;;;;;;;10.69;79.83;100635.44;4974710;28;20037;-86
2023/01/28 00:57:55;;;;;;;2.60;2.00;;;;;;;10.60;79.96;100622.78;4960862;28;20406;-87
2023/01/28 01:00:24;;;;;;;2.50;2.10;;;;;;;10.65;80.18;100634.41;4956356;28;20109;-86
2023/01/28 01:02:50;;;;;;;2.58;2.05;;;;;;;10.70;79.71;100647.69;4974598;28;20117;-86
2023/01/28 01:05:16;;;;;;;;;;;;;;;10.74;79.73;100652.25;4973667;28;20030;-87
2023/01/28 01:07:42;;;;;;;3.40;2.20;;;;;;;10.51;79.99;100620.63;4957395;28;20284;-86
2023/01/28 01:10:13;;;;;;;2.42;2.10;;;;;;;10.49;79.65;100618.75;4960045;28;20031;-86
2023/01/28 01:12:39;;;;;;;2.70;2.00;;;;;;;10.72;79.95;100669.56;4953066;28;20065;-86
2023/01/28 01:15:09;;;;;;;3.15;2.22;;;;;;;10.76;79.72;100674.13;4957360;28;20018;-87
2023/01/28 01:17:36;;;;;;;2.60;2.03;;;;;;;10.66;79.90;100657.06;4941972;28;20102;-86
2023/01/28 01:20:03;;;;;;;2.05;1.80;;;;;;;10.53;80.00;100646.81;4956682;28;20109;-87
2023/01/28 01:22:35;;;;;;;2.67;1.85;;;;;;;10.73;79.96;100671.31;4973532;28;20027;-87
2023/01/28 01:25:03;;;;;;;2.75;1.92;;;;;;;10.66;79.73;100677.97;4964663;28;20085;-86
2023/01/28 01:27:30;;;;;;;2.35;2.00;;;;;;;10.46;79.75;100644.72;4947408;28;20090;-86
2023/01/28 01:29:55;;;;;;;2.08;1.67;;;;;;;10.45;79.83;100648.13;4998659;28;20019;-86
2023/01/28 01:32:21;;;;;;;2.05;1.73;;;;;;;10.66;80.29;100666.63;4985090;28;20023;-86
2023/01/28 01:34:48;;;;;;;3.22;2.00;;;;;;;10.55;79.97;100645.19;4957922;28;20053;-86
2023/01/28 01:37:13;;;;;;;;;;;;;;;10.67;80.02;100665.78;4958316;28;20078;-86
2023/01/28 01:39:39;;;;;;;2.58;1.88;;;;;;;10.19;79.95;100595.41;4973643;28;19949;-86
2023/01/28 01:42:04;;;;;;;2.80;1.98;;;;;;;10.64;79.85;100678.69;4955959;28;20042;-86
2023/01/28 01:45:16;;;;;;;2.42;1.70;;;;;;;10.63;79.57;100672.59;4956851;28;20062;-87
2023/01/28 01:48:13;;;;;;;2.50;1.90;;;;;;;10.62;80.11;100680.34;4915010;29;20102;-85
2023/01/28 01:50:50;;;;;;;1.90;1.65;;;;;;;10.63;79.94;100683.03;4957077;28;20097;-86
2023/01/28 01:53:16;;;;;;;;;;;;;;;10.59;79.97;100689.81;4940530;28;20459;-86
2023/01/28 01:55:46;;;;;;;2.65;1.80;;;;;;;10.46;80.36;100662.97;4956944;28;19921;-86
2023/01/28 01:58:14;;;;;;;2.63;1.88;;;;;;;10.56;80.21;100686.13;4973243;28;20055;-85
2023/01/28 02:00:40;;;;;;;1.80;1.60;;;;;;;10.45;80.07;100664.66;4974318;28;20022;-86
2023/01/28 02:03:06;;;;;;;2.60;1.80;;;;;;;10.43;80.26;100668.91;4955889;28;20023;-85
2023/01/28 02:05:32;;;;;;;2.17;1.88;;;;;;;10.57;79.94;100695.75;4973004;28;20097;-85
2023/01/28 02:08:19;;;;;;;2.22;1.50;;;;;;;10.34;79.65;100653.66;4973550;28;20492;-85
2023/01/28 02:10:44;;;;;;;2.08;1.67;;;;;;;10.23;80.04;100635.63;4970862;28;20035;-86
2023/01/28 02:13:09;;;;;;;2.00;1.75;;;;;;;10.15;79.95;100630.00;4948471;28;20015;-85
2023/01/28 02:15:35;;;;;;;2.00;1.55;;;;;;;10.24;79.73;100642.63;4972575;28;20488;-86
2023/01/28 02:18:19;;;;;;;2.60;1.58;;;;;;;10.53;79.80;100692.09;4956759;28;20023;-86
2023/01/28 02:21:11;;;;;;;2.13;1.55;;;;;;;10.56;79.63;100699.19;4962146;28;20062;-86
2023/01/28 02:23:45;;;;;;;2.45;1.63;;;;;;;10.54;79.52;100699.13;4965149;28;20109;-85
2023/01/28 02:26:40;;;;;;;2.03;1.73;;;;;;;10.47;79.91;100707.41;4934646;29;20024;-86
2023/01/28 02:29:28;;;;;;;2.30;1.75;;;;;;;10.45;79.83;100703.84;4952092;28;20029;-86
2023/01/28 02:32:04;;;;;;;1.38;1.27;;;;;;;10.54;79.31;100714.78;4965244;28;20047;-87
2023/01/28 02:34:42;;;;;;;2.13;1.63;;;;;;;10.45;79.95;100702.94;4939831;28;20481;-85
2023/01/28 02:37:14;;;;;;;1.95;1.67;;;;;;;10.37;79.82;100699.91;4956145;28;20034;-86
2023/01/28 02:39:44;;;;;;;1.88;1.70;;;;;;;10.30;79.59;100679.53;4952629;28;20559;-86
2023/01/28 02:42:22;;;;;;;1.67;1.48;;;;;;;10.47;79.68;100711.75;4955715;28;20558;-86
2023/01/28 02:44:48;;;;;;;1.88;1.58;;;;;;;10.43;79.50;100699.34;4954953;28;20034;-86
2023/01/28 02:50:00;;;;;;;2.15;1.40;;;;;;;10.27;79.57;100687.19;4955785;28;20571;-85
2023/01/28 02:56:05;;;;;;;2.78;1.40;;;;;;;10.34;79.31;100707.59;4972285;28;20106;-85
2023/01/28 02:58:38;;;;;;;1.60;1.50;;;;;;;10.44;79.67;100733.38;4970617;28;20018;-85
2023/01/28 03:01:49;;;;;;;1.60;1.42;;;;;;;10.44;79.35;100738.59;4939241;28;20409;-86
2023/01/28 03:05:10;;;;;;;2.30;1.70;;;;;;;10.43;79.60;100743.72;4964499;28;20078;-86
2023/01/28 03:07:37;;;;;;;1.42;1.33;;;;;;;10.29;79.48;100724.69;4920348;29;20473;-87
2023/01/28 03:10:05;;;;;;;1.40;1.30;;;;;;;10.42;79.71;100742.84;4952046;28;20504;-86
2023/01/28 03:38:19;;;;;;;1.38;1.27;;;;;;;10.23;79.99;100746.13;4954005;28;20094;-86
2023/01/28 03:40:54;;;;;;;2.13;1.50;;;;;;;10.25;79.78;100743.59;4971888;28;20022;-87
2023/01/28 03:43:19;;;;;;;1.83;1.50;;;;;;;10.16;79.78;100739.69;4954885;28;20101;-86
2023/01/28 03:45:50;;;;;;;1.60;1.50;;;;;;;10.16;79.58;100734.47;4951262;28;20029;-86
2023/01/28 03:48:17;;;;;;;1.48;1.38;;;;;;;10.09;79.42;100718.38;4962909;28;20104;-86
2023/01/28 03:50:43;;;;;;;1.63;1.50;;;;;;;10.04;79.58;100714.63;4954861;28;20019;-87
2023/01/28 03:53:12;;;;;;;1.48;1.30;;;;;;;9.99;79.45;100704.84;4970216;28;20432;-86
2023/01/28 03:55:38;;;;;;;2.25;1.38;;;;;;;10.28;79.75;100770.75;4948477;28;20118;-86
2023/01/28 03:58:07;;;;;;;1.52;1.33;;;;;;;10.23;79.74;100769.59;4954151;28;20519;-85
2023/01/28 04:00:33;;;;;;;1.75;1.50;;;;;;;9.89;79.59;100709.44;4970382;28;20061;-86
2023/01/28 04:02:59;;;;;;;1.85;1.30;;;;;;;9.98;79.56;100725.59;4962380;28;20404;-86
2023/01/28 04:05:25;;;;;;;2.00;1.50;;;;;;;10.03;79.46;100737.19;4971821;28;20057;-86
2023/01/28 04:07:54;;;;;;;1.75;1.42;;;;;;;10.16;79.55;100778.81;4971281;28;20093;-86
2023/01/28 04:10:20;;;;;;;1.50;1.40;;;;;;;9.97;79.80;100740.38;4962726;28;20404;-86
2023/01/28 04:12:48;;;;;;;2.60;1.52;;;;;;;10.22;79.71;100777.34;4968482;28;20473;-87
2023/01/28 04:15:17;;;;;;;2.30;1.70;;;;;;;10.17;79.56;100769.28;4958962;28;20460;-87
2023/01/28 04:17:44;;;;;;;1.45;1.30;;;;;;;10.09;79.04;100761.00;4958101;28;20473;-87
2023/01/28 04:20:11;;;;;;;1.48;1.35;;;;;;;10.07;79.57;100773.06;4958252;28;20031;-88
2023/01/28 04:22:37;;;;;;;1.58;1.23;;;;;;;10.21;79.46;100804.28;4974487;28;20065;-87
2023/01/28 04:25:03;;;;;;;1.85;1.55;;;;;;;9.88;79.24;100746.75;4958550;28;20065;-86
2023/01/28 04:27:29;;;;;;;1.98;1.20;;;;;;;10.15;79.48;100794.38;4957376;28;20054;-84
2023/01/28 04:29:54;;;;;;;1.83;1.35;;;;;;;9.92;79.30;100761.78;4969798;28;20031;-85
2023/01/28 04:32:20;;;;;;;2.10;1.40;;;;;;;9.76;79.73;100744.38;4957815;28;20061;-84
2023/01/28 04:34:45;;;;;;;1.48;1.38;;;;;;;9.92;79.63;100767.88;4971342;28;20747;-83
2023/01/28 04:37:11;;;;;;;1.45;1.27;;;;;;;10.17;79.37;100814.53;4979446;28;20037;-84
2023/01/28 04:42:21;;;;;;;2.03;1.50;;;;;;;9.89;79.18;100775.56;4914018;29;20042;-85
2023/01/28 04:44:46;;;;;;;1.95;1.58;;;;;;;9.87;79.30;100777.19;4899431;29;20028;-84
2023/01/28 04:47:13;;;;;;;1.98;1.60;;;;;;;10.15;79.31;100833.53;4899503;29;20043;-87
2023/01/28 04:49:38;;;;;;;2.08;1.40;;;;;;;9.92;79.43;100807.00;4915644;29;20031;-86
2023/01/28 04:52:04;;;;;;;2.00;1.38;;;;;;;9.78;79.61;100776.66;4907221;29;20044;-86
2023/01/28 04:54:29;;;;;;;1.38;1.27;;;;;;;9.86;79.50;100798.84;4899134;29;20108;-85
2023/01/28 04:56:55;;;;;;;1.92;1.33;;;;;;;9.81;79.38;100788.97;4915197;29;20044;-85
2023/01/28 04:59:22;;;;;;;1.75;1.42;;;;;;;10.11;79.64;100853.31;4915071;29;20059;-84
2023/01/28 05:01:48;;;;;;;1.55;1.40;;;;;;;9.98;78.76;100827.34;4914777;29;20044;-85
2023/01/28 05:04:16;;;;;;;1.90;1.60;;;;;;;10.00;79.46;100843.97;4897071;29;20051;-85
2023/01/28 05:06:41;;;;;;;1.90;1.40;;;;;;;9.72;79.20;100799.78;4909377;29;20099;-85
2023/01/28 05:09:07;;;;;;;1.45;1.30;;;;;;;9.97;79.43;100843.81;4899354;29;20070;-85
2023/01/28 05:11:33;;;;;;;1.55;1.42;;;;;;;9.90;79.66;100836.44;4914706;29;20048;-85
2023/01/28 05:13:58;;;;;;;2.03;1.67;;;;;;;9.85;79.85;100838.78;4968145;28;20113;-85
2023/01/28 05:16:24;;;;;;;2.17;1.75;;;;;;;9.56;79.39;100779.72;4971955;28;20505;-84
2023/01/28 05:18:50;;;;;;;1.55;1.42;;;;;;;9.77;79.44;100816.56;4974092;28;20031;-85
2023/01/28 05:21:16;;;;;;;1.70;1.27;;;;;;;9.85;79.34;100840.50;4960008;28;20071;-84
2023/01/28 05:23:43;;;;;;;2.60;1.83;;;;;;;10.04;79.43;100882.47;4971169;28;20126;-85
2023/01/28 05:26:09;;;;;;;1.50;1.40;;;;;;;10.05;79.35;100879.03;4973438;28;20118;-84
2023/01/28 05:28:35;;;;;;;2.10;1.60;;;;;;;9.99;79.62;100884.84;4973726;28;20027;-82
2023/01/28 05:31:04;;;;;;;1.65;1.55;;;;;;;10.04;79.22;100899.84;4974436;28;20033;-85
2023/01/28 05:33:30;;;;;;;1.73;1.63;;;;;;;9.89;79.46;100873.78;4953981;28;20027;-85
2023/01/28 05:35:56;;;;;;;2.20;1.58;;;;;;;9.96;79.28;100896.78;4954572;28;20022;-86
2023/01/28 05:38:21;;;;;;;1.40;1.30;;;;;;;9.89;79.42;100899.84;4973864;28;20109;-86
2023/01/28 05:40:47;;;;;;;1.70;1.60;;;;;;;9.74;79.19;100879.00;4970413;28;20047;-87
2023/01/28 05:43:13;;;;;;;7.43;1.92;;;;;;;9.77;78.94;100880.06;4969767;28;20500;-87
2023/01/28 05:45:38;;;;;;;2.17;1.80;;;;;;;9.96;79.13;100923.75;4973607;28;20099;-86
2023/01/28 05:48:04;;;;;;;2.25;1.85;;;;;;;9.88;79.39;100900.66;4957005;28;20034;-86
2023/01/28 05:50:30;;;;;;;2.85;1.70;;;;;;;9.67;79.07;100866.38;4957036;28;20468;-85
2023/01/28 05:52:55;;;;;;;2.30;1.80;;;;;;;9.86;78.84;100899.66;4971578;28;20027;-84
2023/01/28 05:55:21;;;;;;;2.80;2.10;;;;;;;9.70;79.42;100888.34;4956690;28;20497;-86
2023/01/28 05:57:47;;;;;;;2.40;1.92;;;;;;;9.83;79.25;100925.56;4955585;28;20034;-85
2023/01/28 06:00:14;;;;;;;2.08;1.70;;;;;;;9.58;79.18;100885.88;4971632;28;20061;-86
2023/01/28 06:02:40;;;;;;;2.15;1.70;;;;;;;9.77;78.96;100911.34;4967000;28;20428;-86
2023/01/28 06:05:06;;;;;;;;;;;;;;;10.01;78.82;100941.41;4954976;28;20392;-87
2023/01/28 06:07:32;;;;;;;2.30;1.88;;;;;;;9.63;79.21;100895.69;4955719;28;20371;-87
2023/01/28 06:09:57;;;;;;;1.92;1.60;;;;;;;9.64;79.33;100892.28;4955165;28;20035;-87
2023/01/28 06:12:23;;;;;;;3.25;2.33;;;;;;;9.87;79.15;100940.59;4940560;28;20033;-86
2023/01/28 06:14:49;;;;;;;2.95;2.20;;;;;;;9.81;79.12;100938.50;4972806;28;20492;-87
2023/01/28 06:17:14;;;;;;;3.60;2.35;;;;;;;9.87;78.68;100953.66;4957346;28;20031;-86
2023/01/28 06:19:40;;;;;;;2.70;1.92;;;;;;;9.85;79.02;100960.47;4969465;28;20026;-86
2023/01/28 06:22:06;;;;;;;2.92;2.05;;;;;;;9.85;79.24;100957.88;4938721;29;20044;-85
2023/01/28 06:24:31;;;;;;;3.15;2.08;;;;;;;9.60;79.17;100940.72;4937037;29;20039;-86
2023/01/28 06:26:57;;;;;;;2.53;2.13;;;;;;;9.85;79.13;100970.91;4952414;29;20035;-86
2023/01/28 06:29:23;;;;;;;3.45;2.40;;;;;;;9.47;79.38;100930.38;4941988;29;20540;-86
2023/01/28 06:31:48;;;;;;;2.72;2.17;;;;;;;9.63;79.21;100966.09;4953736;29;20553;-86
2023/01/28 06:34:14;;;;;;;2.75;2.10;;;;;;;9.57;78.86;100951.00;4953600;28;20030;-86
2023/01/28 06:36:40;;;;;;;3.22;2.30;;;;;;;9.86;79.07;101007.50;4952392;28;20071;-87
2023/01/28 06:39:06;;;;;;;2.60;2.20;;;;;;;9.68;78.87;100978.59;4936128;29;20386;-87
2023/01/28 06:41:32;;;;;;;2.90;2.10;;;;;;;9.92;78.63;101014.81;4949978;28;20038;-85
2023/01/28 06:43:57;;;;;;;2.95;2.30;;;;;;;9.56;78.89;100959.59;4935112;29;20509;-86
2023/01/28 06:46:23;;;;;;;2.97;2.40;;;;;;;9.71;79.20;100997.03;4953072;28;20467;-86
2023/01/28 06:48:49;;;;;;;2.80;2.13;;;;;;;9.81;79.26;101021.09;4936289;29;20613;-86
2023/01/28 06:51:20;;;;;;;2.88;2.13;;;;;;;9.78;78.76;101006.16;4953011;28;20106;-86
2023/01/28 06:53:46;;;;;;;3.72;2.50;;;;;;;9.55;79.16;100979.56;4953103;29;20485;-85
2023/01/28 06:56:13;;;;;;;3.50;2.35;;;;;;;9.76;78.85;101015.59;4916014;29;20028;-85
2023/01/28 06:58:51;;;;;;;3.33;2.42;;;;;;;9.16;79.45;100926.81;4935408;29;20035;-85
2023/01/28 07:01:23;;;;;;;3.55;2.70;;;;;;;9.60;78.82;101003.31;4950901;29;20031;-85
2023/01/28 07:04:13;;;;;;;3.92;2.78;;;;;;;9.78;78.65;101038.34;4933673;28;20023;-84
2023/01/28 07:06:39;;;;;;;3.28;2.45;;;;;;;9.33;78.80;100955.59;4947906;28;20027;-84
2023/01/28 07:09:08;;;;;;;3.60;2.72;;;;;;;9.72;78.64;101035.34;4934066;29;20565;-85
2023/01/28 07:11:42;;;;;;;3.30;2.80;;;;;;;9.67;78.61;101018.53;4935932;29;20027;-84
2023/01/28 07:14:09;;;;;;;3.28;2.75;;;;;;;9.67;79.06;101028.03;4935708;29;20544;-86
2023/01/28 07:16:34;;;;;;;;;;;;;;;9.83;78.71;101043.84;4935602;29;20031;-85
2023/01/28 07:19:00;;;;;;;4.32;2.63;;;;;;;9.71;78.94;101049.19;4948245;28;20384;-85
2023/01/28 07:21:26;;;;;;;4.25;2.70;;;;;;;9.16;78.85;100941.50;4957439;28;20576;-85
2023/01/28 07:23:52;;;;;;;4.35;2.90;;;;;;;9.29;78.41;100982.25;4951655;29;20031;-86
2023/01/28 07:26:30;;;;;;;3.70;2.88;;;;;;;9.07;79.12;100926.19;4934781;29;20488;-84
2023/01/28 07:29:04;;;;;;;4.78;3.20;;;;;;;9.27;79.42;100979.56;4953026;28;20031;-84
2023/01/28 07:31:30;;;;;;;6.10;3.03;;;;;;;9.12;78.78;100940.44;4956856;28;20020;-85
2023/01/28 07:33:56;;;;;;;4.32;3.28;;;;;;;9.29;79.06;100975.38;4952381;28;20041;-85
2023/01/28 07:36:29;;;;;;;3.80;2.85;;;;;;;9.48;78.97;101008.69;4951735;28;20027;-92
2023/01/28 07:39:04;;;;;;;4.25;3.10;;;;;;;9.51;79.20;101021.91;4941511;29;20535;-93
2023/01/28 07:41:29;;;;;;;4.15;3.08;;;;;;;9.61;78.76;101030.28;4928396;29;20489;-93
2023/01/28 07:43:59;;;;;;;4.47;3.50;;;;;;;9.68;79.16;101056.84;4952292;28;20027;-92
2023/01/28 07:46:30;;;;;;;4.68;3.55;;;;;;;9.51;79.14;101034.94;4936199;29;20039;-94
2023/01/28 07:49:01;;;;;;;3.85;3.03;;;;;;;9.55;79.29;101049.06;4942255;28;20035;-92
2023/01/28 07:51:52;;;;;;;4.43;3.25;;;;;;;9.63;79.28;101044.31;4953402;29;20094;-95
2023/01/28 07:54:40;;;;;;;4.85;3.20;;;;;;;9.65;79.05;101050.50;4955499;28;20581;-94
2023/01/28 07:57:25;;;;;;;3.92;3.13;;;;;;;9.53;78.91;101035.03;4929480;29;20099;-90
2023/01/28 08:00:33;;;;;;;4.70;3.33;;;;;;;9.59;79.12;101071.91;4951077;29;20031;-92
2023/01/28 08:03:06;;;;;;;5.65;3.75;;;;;;;9.61;79.08;101072.00;4934662;29;20521;-88
2023/01/28 08:05:42;;;;;;;4.35;2.95;;;;;;;9.66;79.24;101073.19;4966608;28;20031;-87
2023/01/28 08:08:09;;;;;;;4.45;3.35;;;;;;;9.67;78.81;101075.91;4937126;29;20059;-87
2023/01/28 08:10:35;;;;;;;5.22;3.63;;;;;;;9.66;78.90;101075.81;4949034;28;20045;-87
2023/01/28 08:13:01;;;;;;;4.47;3.00;;;;;;;9.67;79.10;101094.16;4934569;29;20106;-88
2023/01/28 08:15:28;;;;;;;4.68;3.40;;;;;;;9.54;79.02;101075.91;4935732;29;20107;-88
2023/01/28 08:17:56;;;;;;;4.07;3.33;;;;;;;9.54;79.11;101068.09;4962720;28;20074;-89
2023/01/28 08:20:22;;;;;;;4.70;3.58;;;;;;;9.48;78.69;101059.88;4935256;28;20432;-90
2023/01/28 08:22:50;;;;;;;;;;;;;;;9.69;78.96;101089.91;4955350;28;20031;-88
2023/01/28 08:25:15;;;;;;;4.38;3.58;;;;;;;9.40;78.97;101043.78;4961554;28;19913;-89
2023/01/28 08:27:43;;;;;;;5.63;3.75;;;;;;;9.28;78.88;101038.69;4966828;28;20113;-88
2023/01/28 08:30:09;;;;;;;5.00;3.63;;;;;;;9.34;79.28;101043.41;4949058;28;20110;-88
2023/01/28 08:32:35;;;;;;;5.07;3.50;;;;;;;9.32;79.03;101050.22;4955066;28;20094;-88
2023/01/28 08:35:01;;;;;;;4.43;3.45;;;;;;;9.60;79.21;101094.56;4946501;28;20126;-89
2023/01/28 08:37:27;;;;;;;;;;;;;;;9.67;78.52;101090.63;4950822;28;20023;-87
2023/01/28 08:39:55;;;;;;;4.95;3.50;;;;;;;9.62;78.75;101098.16;4950434;28;19933;-86
2023/01/28 08:42:21;;;;;;;4.72;3.50;;;;;;;9.28;78.35;101049.13;4953391;28;20027;-86
2023/01/28 08:44:47;;;;;;;4.72;3.90;;;;;;;9.49;78.02;101095.59;4952905;28;20018;-85
2023/01/28 08:47:13;;;;;;;5.15;3.83;;;;;;;9.48;78.70;101096.38;4953867;28;20031;-85
2023/01/28 08:49:39;;;;;;;;;;;;;;;9.53;78.56;101100.22;4953252;28;20046;-85
2023/01/28 08:52:04;;;;;;;5.82;4.07;;;;;;;9.52;78.72;101099.28;4962526;28;20316;-85
2023/01/28 08:54:30;;;;;;;6.47;4.22;;;;;;;9.28;79.22;101061.25;4950320;28;20114;-87
2023/01/28 08:56:55;;;;;;;5.60;3.90;;;;;;;9.34;79.44;101072.97;4953107;28;20039;-87
2023/01/28 08:59:21;;;;;;;6.10;4.28;;;;;;;9.48;79.21;101091.16;4972559;28;20042;-88
2023/01/28 09:01:46;;;;;;;6.10;4.13;;;;;;;9.26;79.45;101060.25;4961662;28;20054;-84
2023/01/28 09:04:12;;;;;;;7.10;4.40;;;;;;;9.29;79.49;101066.56;4938040;28;20035;-87
2023/01/28 09:06:37;;;;;;;6.22;4.38;;;;;;;9.28;78.83;101061.25;4952373;28;20509;-87
2023/01/28 09:09:03;;;;;;;8.23;4.35;;;;;;;9.43;79.69;101088.28;4957993;28;20038;-85
2023/01/28 09:11:29;;;;;;;6.93;4.35;;;;;;;9.43;78.98;101100.41;4971251;28;20436;-88
2023/01/28 09:13:58;;;;;;;5.95;3.97;;;;;;;9.44;79.28;101100.53;4961077;28;20400;-87
2023/01/28 09:16:25;;;;;;;5.88;4.10;;;;;;;9.40;79.64;101085.50;4965456;28;20062;-85
2023/01/28 09:18:51;;;;;;;5.95;4.03;;;;;;;9.21;79.06;101059.03;4961758;28;20030;-85
2023/01/28 09:21:17;;;;;;;6.07;4.20;;;;;;;9.45;79.32;101094.50;4974102;28;20047;-86
2023/01/28 09:23:42;;;;;;;7.72;4.40;;;;;;;9.44;79.49;101087.50;4970726;28;20501;-85
2023/01/28 09:26:08;;;;;;;7.20;4.43;;;;;;;9.44;79.73;101086.56;4971311;28;20031;-86
2023/01/28 09:28:34;;;;;;;5.88;4.32;;;;;;;9.24;79.54;101047.13;4948459;28;20803;-84
2023/01/28 09:31:07;;;;;;;8.15;4.80;;;;;;;9.22;79.44;101043.50;4957402;28;20421;-86
2023/01/28 09:33:33;;;;;;;7.10;3.83;;;;;;;9.53;79.57;101108.03;4943701;28;20417;-87
2023/01/28 09:36:00;;;;;;;7.82;4.75;;;;;;;9.47;79.35;101102.41;4949512;29;20035;-87
2023/01/28 09:38:26;;;;;;;7.10;4.45;;;;;;;9.30;80.20;101084.00;4952127;29;20035;-86
2023/01/28 09:40:52;;;;;;;6.90;4.35;;;;;;;9.10;79.67;101058.34;4941797;29;20055;-87
2023/01/28 09:43:53;;;;;;;6.78;4.55;;;;;;;9.29;79.76;101089.09;4960894;28;20031;-87
2023/01/28 09:46:19;;;;;;;5.47;4.05;;;;;;;9.49;79.73;101126.88;4934624;28;20053;-87
2023/01/28 09:48:50;;;;;;;6.72;4.75;;;;;;;9.37;79.45;101088.78;4959449;28;20039;-86
2023/01/28 09:51:28;;;;;;;7.10;4.35;;;;;;;9.43;79.74;101109.13;4951198;28;20031;-86
2023/01/28 09:53:57;;;;;;;6.03;4.40;;;;;;;9.47;79.56;101125.88;4958665;28;20039;-86
2023/01/28 09:56:31;;;;;;;5.78;4.20;;;;;;;9.56;79.92;101137.78;4948679;28;20106;-86
2023/01/28 09:59:03;;;;;;;5.32;3.90;;;;;;;9.38;79.76;101126.19;4947629;28;20425;-86
2023/01/28 10:01:39;;;;;;;7.45;5.18;;;;;;;9.52;79.95;101147.91;4945961;28;20336;-85
2023/01/28 10:04:21;;;;;;;7.33;4.97;;;;;;;9.53;79.71;101150.63;4958411;28;20045;-85
2023/01/28 10:07:16;;;;;;;6.30;4.32;;;;;;;9.57;80.40;101156.97;4951385;28;20034;-85
2023/01/28 10:09:53;;;;;;;6.60;4.55;;;;;;;9.57;80.15;101168.28;4928422;29;20043;-86
2023/01/28 10:12:31;;;;;;;8.27;4.55;;;;;;;9.55;80.78;101169.88;4950129;28;20371;-86
2023/01/28 10:15:05;;;;;;;7.35;4.70;;;;;;;9.56;81.30;101178.59;4944211;28;20560;-85
2023/01/28 10:17:36;;;;;;;8.65;5.00;;;;;;;9.38;81.32;101134.91;4939263;29;20030;-85
2023/01/28 10:20:19;;;;;;;8.32;4.90;;;;;;;9.23;81.79;101126.09;4944992;28;20065;-86
2023/01/28 10:22:54;;;;;;;9.88;5.40;;;;;;;9.52;81.91;101171.38;4942829;29;20043;-85
2023/01/28 10:25:23;;;;;;;8.02;4.97;;;;;;;9.34;80.95;101134.63;4920380;29;20095;-86
2023/01/28 10:27:51;;;;;;;7.75;5.30;;;;;;;9.57;81.45;101170.00;4936795;29;20150;-85
2023/01/28 10:30:31;;;;;;;9.32;5.05;;;;;;;9.54;82.03;101149.81;4936432;28;20030;-85
2023/01/28 10:33:18;;;;;;;10.15;5.63;;;;;;;9.63;82.40;101177.28;4914105;28;20082;-85
2023/01/28 10:35:46;;;;;;;13.70;6.20;;;;;;;9.65;82.27;101174.00;4953760;28;20154;-86
2023/01/28 10:38:24;;;;;;;18.52;6.45;;;;;;;9.62;81.79;101152.91;4936974;29;20652;-85
2023/01/28 10:40:51;;;;;;;13.18;6.30;;;;;;;9.65;82.07;101154.81;4945923;28;20405;-85
2023/01/28 10:43:24;;;;;;;18.05;6.43;;;;;;;9.54;82.64;101147.22;4918341;29;20039;-85
2023/01/28 10:46:00;;;;;;;17.05;6.30;;;;;;;9.41;82.95;101136.81;4935567;29;20174;-85
2023/01/28 10:48:34;;;;;;;20.88;6.90;;;;;;;9.62;83.25;101171.19;4953875;28;20039;-85
2023/01/28 10:51:04;;;;;;;21.65;7.25;;;;;;;9.35;82.71;101121.66;4941100;29;20087;-85
2023/01/28 10:53:42;;;;;;;19.00;7.53;;;;;;;9.14;83.34;101108.19;4948585;28;20115;-85
2023/01/28 10:56:25;;;;;;;13.80;6.95;;;;;;;9.18;83.75;101109.25;4935083;28;20135;-85
2023/01/28 10:58:57;;;;;;;14.35;6.93;;;;;;;9.59;83.34;101176.22;4954647;28;20073;-86
2023/01/28 11:01:43;;;;;;;13.55;7.10;;;;;;;9.41;83.92;101149.84;4950606;28;20030;-85
2023/01/28 11:04:30;;;;;;;14.80;6.97;;;;;;;9.60;84.05;101179.72;4929675;29;20057;-86
2023/01/28 11:07:04;;;;;;;13.40;6.85;;;;;;;9.58;83.66;101172.66;4945308;29;20035;-87
2023/01/28 11:09:37;;;;;;;14.32;7.38;;;;;;;9.45;83.96;101151.84;4934173;28;20027;-87
2023/01/28 11:12:24;;;;;;;15.75;8.20;;;;;;;9.55;83.99;101174.19;4962972;28;20035;-85
2023/01/28 11:14:53;;;;;;;;;;;;;;;9.66;83.46;101191.44;4952063;28;20067;-85
2023/01/28 11:17:23;;;;;;;13.65;7.03;;;;;;;9.64;83.34;101184.31;4948336;29;19985;-84
2023/01/28 11:19:51;;;;;;;14.07;7.10;;;;;;;9.57;83.04;101170.88;4950462;28;20085;-86
2023/01/28 11:22:35;;;;;;;13.00;7.28;;;;;;;9.62;82.92;101176.38;4968722;28;20433;-86
2023/01/28 11:25:05;;;;;;;13.23;7.28;;;;;;;9.58;82.12;101162.25;4955174;28;20041;-86
2023/01/28 11:27:32;;;;;;;18.90;7.53;;;;;;;9.52;81.72;101137.50;4953984;28;20030;-85
2023/01/28 11:30:02;;;;;;;17.27;7.95;;;;;;;9.31;82.99;101116.16;4951210;28;20412;-84
2023/01/28 11:32:28;;;;;;;13.80;7.85;;;;;;;9.63;83.19;101178.22;4938956;28;20462;-86
2023/01/28 11:34:59;;;;;;;14.80;7.78;;;;;;;9.09;82.76;101077.41;4954332;28;20033;-85
2023/01/28 11:37:27;;;;;;;13.07;7.75;;;;;;;9.52;82.92;101156.63;4966601;28;20110;-84
2023/01/28 11:40:21;;;;;;;12.65;7.93;;;;;;;9.62;83.12;101178.09;4964650;28;20038;-85
2023/01/28 11:42:50;;;;;;;14.80;7.60;;;;;;;9.38;82.61;101140.13;4971631;28;20448;-87
2023/01/28 11:45:17;;;;;;;13.85;8.07;;;;;;;9.63;82.53;101193.84;4969769;28;20480;-86
2023/01/28 11:48:09;;;;;;;13.10;7.47;;;;;;;9.59;83.62;101194.47;4969014;28;20026;-87
2023/01/28 11:50:41;;;;;;;13.43;7.72;;;;;;;9.27;82.88;101138.53;4966316;28;20041;-86
2023/01/28 11:53:20;;;;;;;12.20;8.00;;;;;;;9.62;83.17;101199.84;4972005;28;20046;-87
2023/01/28 11:56:01;;;;;;;11.02;7.82;;;;;;;9.65;82.39;101199.16;4948719;28;20058;-86
2023/01/28 11:58:51;;;;;;;13.20;7.60;;;;;;;9.66;82.62;101200.97;4970987;28;20139;-88
2023/01/28 12:01:35;;;;;;;13.00;7.57;;;;;;;9.50;82.61;101184.34;4970259;28;20023;-86
2023/01/28 12:04:25;;;;;;;13.30;7.65;;;;;;;9.63;82.93;101213.78;4970295;28;20034;-87
2023/01/28 12:06:54;;;;;;;11.80;8.02;;;;;;;9.64;83.24;101216.50;4970085;28;20035;-86
2023/01/28 12:09:19;;;;;;;13.23;7.88;;;;;;;9.52;83.28;101197.44;4971730;28;20034;-86
2023/01/28 12:12:13;;;;;;;19.55;8.57;;;;;;;9.48;82.62;101179.81;4971501;28;20030;-86
2023/01/28 12:14:57;;;;;;;16.23;8.45;;;;;;;9.51;82.90;101195.66;4947462;28;20034;-86
2023/01/28 12:17:54;;;;;;;14.85;7.95;;;;;;;9.62;83.97;101220.72;4967200;28;20023;-86
2023/01/28 12:20:30;;;;;;;17.55;8.70;;;;;;;9.67;83.16;101215.78;4967537;28;20138;-86
2023/01/28 12:23:02;;;;;;;16.95;8.43;;;;;;;9.69;82.41;101216.78;4955951;28;20125;-86